Terminal Aerodrome Forecast
Issued by NWS Wilmington, OH

Current Version | Previous Version | Graphics & Text | Print | Product List | Glossary On
Versions: 1 2 3 4 5 6 7 8 9 10 11 12 13 14 15
000
FTUS41 KILN 291100
TAFDAY
TAF
KDAY 291122Z 2912/3012 26007KT P6SM FEW200
     FM291600 28012G20KT P6SM SCT035
     FM291800 28013G23KT P6SM BKN040
     FM292200 30008KT P6SM BKN040
     FM300400 34005KT P6SM BKN040=

USA.gov is the U.S. government's official web portal to all federal, state and local government web resources and services.